createdAt,value
2022-08-29T00:00:25.879Z,100273.89
2022-08-29T00:03:08.980Z,100271.45
2022-08-29T00:05:40.091Z,100276.59
2022-08-29T00:08:10.705Z,100276.09
2022-08-29T00:10:40.086Z,100275.93
2022-08-29T00:13:10.158Z,100275.41
2022-08-29T00:15:45.140Z,100272.20
2022-08-29T00:18:16.450Z,100276.71
2022-08-29T00:20:45.862Z,100279.01
2022-08-29T00:23:14.319Z,100276.45
2022-08-29T00:25:42.483Z,100278.11
2022-08-29T00:28:10.967Z,100280.97
2022-08-29T00:30:40.210Z,100280.30
2022-08-29T00:33:09.529Z,100279.50
2022-08-29T00:35:40.474Z,100274.39
2022-08-29T00:38:11.169Z,100270.17
2022-08-29T00:40:47.880Z,100268.73
2022-08-29T00:43:24.904Z,100271.80
2022-08-29T00:46:39.120Z,100271.76
2022-08-29T00:49:12.019Z,100265.45
2022-08-29T00:51:41.559Z,100252.20
2022-08-29T00:54:12.011Z,100266.02
2022-08-29T00:56:41.933Z,100265.89
2022-08-29T00:59:20.525Z,100263.48
2022-08-29T01:01:48.786Z,100264.00
2022-08-29T01:04:23.591Z,100267.48
2022-08-29T01:06:54.201Z,100269.33
2022-08-29T01:09:24.275Z,100264.84
2022-08-29T01:12:11.998Z,100266.92
2022-08-29T01:14:45.961Z,100267.67
2022-08-29T01:17:18.263Z,100268.39
2022-08-29T01:19:54.992Z,100269.34
2022-08-29T01:23:03.349Z,100250.26
2022-08-29T01:25:37.016Z,100264.39
2022-08-29T01:28:15.389Z,100265.75
2022-08-29T01:31:05.261Z,100264.30
2022-08-29T01:33:50.725Z,100267.79
2022-08-29T01:36:32.830Z,100267.19
2022-08-29T01:39:01.184Z,100262.86
2022-08-29T01:41:30.478Z,100264.60
2022-08-29T01:43:58.597Z,100268.95
2022-08-29T01:46:34.991Z,100264.48
2022-08-29T01:49:09.005Z,100272.74
2022-08-29T01:51:37.859Z,100271.20
2022-08-29T01:54:07.590Z,100265.20
2022-08-29T01:56:42.245Z,100257.77
2022-08-29T01:59:14.407Z,100269.11
2022-08-29T02:01:52.494Z,100272.27
2022-08-29T02:04:21.291Z,100273.33
2022-08-29T02:06:49.578Z,100273.45
2022-08-29T02:09:18.178Z,100276.83
2022-08-29T02:11:46.656Z,100273.98
2022-08-29T02:14:19.446Z,100276.27
2022-08-29T02:16:48.274Z,100272.02
2022-08-29T02:19:17.503Z,100275.33
2022-08-29T02:21:45.922Z,100273.21
2022-08-29T02:24:25.590Z,100277.07
2022-08-29T02:26:56.198Z,100282.08
2022-08-29T02:29:26.691Z,100282.25
2022-08-29T02:32:09.126Z,100287.05
2022-08-29T02:34:38.030Z,100287.44
2022-08-29T02:37:06.412Z,100289.89
2022-08-29T02:39:35.178Z,100294.69
2022-08-29T02:42:13.061Z,100295.02
2022-08-29T02:44:40.950Z,100296.44
2022-08-29T02:47:09.728Z,100298.65
2022-08-29T02:49:39.617Z,100297.86
2022-08-29T02:52:08.776Z,100302.70
2022-08-29T02:54:37.564Z,100301.48
2022-08-29T02:57:06.291Z,100303.08
2022-08-29T02:59:34.280Z,100304.94
2022-08-29T03:02:02.922Z,100304.29
2022-08-29T03:04:31.430Z,100306.79
2022-08-29T03:06:59.430Z,100307.02
2022-08-29T03:09:27.555Z,100305.27
2022-08-29T03:11:56.650Z,100303.05
2022-08-29T03:14:25.586Z,100301.31
2022-08-29T03:16:53.818Z,100301.09
2022-08-29T03:19:23.063Z,100302.63
2022-08-29T03:21:51.347Z,100308.19
2022-08-29T03:24:26.916Z,100308.29
2022-08-29T03:26:56.770Z,100312.71
2022-08-29T03:29:25.827Z,100320.77
2022-08-29T03:31:58.681Z,100321.88
2022-08-29T03:34:28.496Z,100326.00
2022-08-29T03:36:56.555Z,100325.84
2022-08-29T03:39:25.496Z,100331.05
2022-08-29T03:41:53.991Z,100334.41
2022-08-29T03:44:22.695Z,100332.92
2022-08-29T03:46:50.519Z,100338.48
2022-08-29T03:49:18.706Z,100338.79
2022-08-29T03:51:46.664Z,100340.67
2022-08-29T03:54:14.582Z,100344.12
2022-08-29T03:56:42.938Z,100353.98
2022-08-29T03:59:11.468Z,100354.67
2022-08-29T04:01:39.692Z,100354.97
2022-08-29T04:04:08.754Z,100356.58
2022-08-29T04:06:37.095Z,100362.45
2022-08-29T04:09:05.714Z,100363.83
2022-08-29T04:11:33.813Z,100367.46
2022-08-29T04:14:02.363Z,100369.29
2022-08-29T04:16:31.363Z,100367.95
2022-08-29T04:18:59.984Z,100370.99
2022-08-29T04:21:28.110Z,100377.70
2022-08-29T04:23:57.872Z,100379.98
2022-08-29T04:26:36.550Z,100380.20
2022-08-29T04:29:06.982Z,100385.52
2022-08-29T04:31:36.719Z,100387.61
2022-08-29T04:34:07.049Z,100393.34
2022-08-29T04:36:36.558Z,100398.81
2022-08-29T04:39:05.880Z,100402.78
2022-08-29T04:41:33.963Z,100406.63
2022-08-29T04:44:04.058Z,100408.52
2022-08-29T04:46:32.879Z,100403.59
2022-08-29T04:49:04.226Z,100404.23
2022-08-29T04:51:34.743Z,100405.91
2022-08-29T04:54:05.224Z,100410.16
2022-08-29T04:56:34.796Z,100407.88
2022-08-29T04:59:03.230Z,100404.44
2022-08-29T05:01:32.138Z,100407.23
2022-08-29T05:04:00.300Z,100404.64
2022-08-29T05:06:28.986Z,100404.06
2022-08-29T05:08:59.673Z,100407.19
2022-08-29T05:11:31.815Z,100412.87
2022-08-29T05:14:00.689Z,100405.42
2022-08-29T05:16:34.556Z,100416.02
2022-08-29T05:19:06.479Z,100420.33
2022-08-29T05:21:38.112Z,100423.21
2022-08-29T05:24:10.054Z,100421.50
2022-08-29T05:26:44.478Z,100417.11
2022-08-29T05:29:13.400Z,100418.09
2022-08-29T05:31:44.679Z,100418.67
2022-08-29T05:34:34.456Z,100417.12
2022-08-29T05:37:09.493Z,100423.12
2022-08-29T05:39:39.272Z,100423.77
2022-08-29T05:42:08.954Z,100428.55
2022-08-29T05:44:37.195Z,100431.11
2022-08-29T05:47:07.924Z,100426.89
2022-08-29T05:49:41.457Z,100427.48
2022-08-29T05:52:10.997Z,100431.64
2022-08-29T05:54:41.692Z,100435.06
2022-08-29T05:57:16.631Z,100434.05
2022-08-29T05:59:48.773Z,100435.86
2022-08-29T06:02:18.394Z,100438.70
2022-08-29T06:04:46.714Z,100439.77
2022-08-29T06:07:15.269Z,100441.55
2022-08-29T06:09:44.282Z,100440.27
2022-08-29T06:12:15.179Z,100444.52
2022-08-29T06:14:50.244Z,100444.15
2022-08-29T06:17:20.191Z,100447.12
2022-08-29T06:19:52.306Z,100445.38
2022-08-29T06:22:21.097Z,100452.02
2022-08-29T06:24:57.518Z,100454.16
2022-08-29T06:27:25.956Z,100462.23
2022-08-29T06:29:54.419Z,100464.45
2022-08-29T06:32:22.391Z,100466.80
2022-08-29T06:34:50.561Z,100470.30
2022-08-29T06:37:19.004Z,100472.33
2022-08-29T06:39:46.938Z,100459.84
2022-08-29T06:42:15.113Z,100476.15
2022-08-29T06:44:44.575Z,100483.45
2022-08-29T06:47:13.138Z,100490.84
2022-08-29T06:49:41.705Z,100492.09
2022-08-29T06:52:09.743Z,100494.41
2022-08-29T06:54:38.634Z,100497.71
2022-08-29T06:57:06.882Z,100499.03
2022-08-29T06:59:35.594Z,100507.38
2022-08-29T07:02:03.851Z,100513.71
2022-08-29T07:04:31.889Z,100516.09
2022-08-29T07:07:00.314Z,100518.52
2022-08-29T07:09:31.352Z,100520.38
2022-08-29T07:11:59.251Z,100520.75
2022-08-29T07:14:27.663Z,100521.25
2022-08-29T07:16:56.799Z,100520.90
2022-08-29T07:19:24.760Z,100527.19
2022-08-29T07:21:57.980Z,100537.98
2022-08-29T07:24:27.190Z,100545.20
2022-08-29T07:26:55.328Z,100544.44
2022-08-29T07:29:23.694Z,100552.32
2022-08-29T07:31:52.287Z,100554.52
2022-08-29T07:34:20.914Z,100556.86
2022-08-29T07:36:49.207Z,100555.37
2022-08-29T07:39:19.376Z,100561.55
2022-08-29T07:41:47.601Z,100564.17
2022-08-29T07:44:17.216Z,100568.58
2022-08-29T07:46:45.628Z,100574.98
2022-08-29T07:49:14.033Z,100579.56
2022-08-29T07:51:44.231Z,100581.09
2022-08-29T07:54:17.108Z,100582.13
2022-08-29T07:56:46.943Z,100577.08
2022-08-29T07:59:15.546Z,100577.59
2022-08-29T08:01:44.554Z,100576.35
2022-08-29T08:04:27.622Z,100576.09
2022-08-29T08:06:57.349Z,100578.77
2022-08-29T08:09:25.363Z,100580.16
2022-08-29T08:11:53.648Z,100580.90
2022-08-29T08:14:21.656Z,100588.35
2022-08-29T08:17:04.135Z,100597.11
2022-08-29T08:19:33.496Z,100596.87
2022-08-29T08:22:01.432Z,100599.09
2022-08-29T08:24:29.824Z,100600.60
2022-08-29T08:26:58.214Z,100604.07
2022-08-29T08:29:26.497Z,100598.74
2022-08-29T08:52:42.791Z,100600.08
2022-08-29T08:55:53.104Z,100606.79
2022-08-29T08:58:55.102Z,100591.81
2022-08-29T09:01:29.261Z,100599.48
2022-08-29T09:04:27.199Z,100611.52
2022-08-29T09:07:14.959Z,100601.41
2022-08-29T09:10:02.854Z,100610.67
2022-08-29T09:13:00.854Z,100615.50
2022-08-29T09:15:40.452Z,100606.19
2022-08-29T09:18:21.846Z,100614.88
2022-08-29T09:20:52.058Z,100612.49
2022-08-29T09:23:44.435Z,100605.98
2022-08-29T09:26:19.911Z,100604.02
2022-08-29T09:28:49.704Z,100612.73
2022-08-29T09:31:33.297Z,100613.23
2022-08-29T09:34:12.093Z,100597.79
2022-08-29T09:36:40.554Z,100616.68
2022-08-29T09:39:18.985Z,100618.04
2022-08-29T09:41:52.456Z,100615.56
2022-08-29T09:44:35.578Z,100614.44
2022-08-29T09:47:09.743Z,100615.44
2022-08-29T09:49:42.186Z,100615.62
2022-08-29T09:52:24.177Z,100614.25
2022-08-29T09:54:52.433Z,100621.02
2022-08-29T09:57:25.012Z,100622.56
2022-08-29T10:00:13.865Z,100616.71
2022-08-29T10:02:47.895Z,100615.49
2022-08-29T10:05:29.149Z,100617.27
2022-08-29T10:07:58.269Z,100622.23
2022-08-29T10:10:33.193Z,100615.17
2022-08-29T10:13:21.354Z,100615.73
2022-08-29T10:15:59.537Z,100619.91
2022-08-29T10:18:43.479Z,100617.88
2022-08-29T10:21:14.377Z,100618.83
2022-08-29T10:24:08.007Z,100625.73
2022-08-29T10:26:55.204Z,100626.11
2022-08-29T10:29:36.418Z,100624.21
2022-08-29T10:32:47.670Z,100625.64
2022-08-29T10:35:23.225Z,100623.45
2022-08-29T10:37:57.120Z,100617.91
2022-08-29T10:40:50.720Z,100626.29
2022-08-29T10:43:30.946Z,100624.64
2022-08-29T10:46:06.419Z,100611.38
2022-08-29T10:49:09.046Z,100626.21
2022-08-29T10:51:44.153Z,100626.08
2022-08-29T10:54:50.052Z,100626.24
2022-08-29T10:57:40.343Z,100626.52
2022-08-29T11:00:15.100Z,100628.95
2022-08-29T11:03:10.515Z,100626.37
2022-08-29T11:05:49.746Z,100625.11
2022-08-29T11:08:23.064Z,100627.00
2022-08-29T11:10:52.670Z,100633.05
2022-08-29T11:13:32.943Z,100628.34
2022-08-29T11:16:17.742Z,100632.01
2022-08-29T11:18:55.310Z,100626.69
2022-08-29T11:21:35.316Z,100626.58
2022-08-29T11:24:05.746Z,100624.20
2022-08-29T11:26:40.155Z,100628.11
2022-08-29T11:29:24.728Z,100621.16
2022-08-29T11:32:15.251Z,100625.89
2022-08-29T11:34:54.074Z,100626.33
2022-08-29T11:37:42.439Z,100632.59
2022-08-29T11:41:26.304Z,100627.33
2022-08-29T11:43:39.256Z,100631.95
2022-08-29T11:46:10.721Z,100635.63
2022-08-29T11:48:42.022Z,100640.40
2022-08-29T11:51:36.107Z,100641.15
2022-08-29T11:54:24.909Z,100640.02
2022-08-29T11:57:02.638Z,100640.89
2022-08-29T11:59:49.373Z,100632.05
2022-08-29T12:02:30.520Z,100638.59
2022-08-29T12:05:16.772Z,100640.27
2022-08-29T12:08:36.003Z,100634.80
2022-08-29T12:11:06.874Z,100637.70
2022-08-29T12:13:44.148Z,100634.23
2022-08-29T12:16:14.697Z,100634.56
2022-08-29T12:18:47.023Z,100633.60
2022-08-29T12:21:48.885Z,100632.39
2022-08-29T12:24:40.114Z,100635.65
2022-08-29T12:27:54.700Z,100636.07
2022-08-29T12:30:22.769Z,100631.39
2022-08-29T12:33:08.183Z,100634.74
2022-08-29T12:35:50.366Z,100639.42
2022-08-29T12:38:50.162Z,100633.70
2022-08-29T12:41:42.338Z,100637.65
2022-08-29T12:44:17.142Z,100638.77
2022-08-29T12:46:48.680Z,100640.41
2022-08-29T12:49:21.237Z,100642.56
2022-08-29T12:51:59.042Z,100643.81
2022-08-29T12:54:32.832Z,100644.63
2022-08-29T12:57:02.894Z,100640.56
2022-08-29T12:59:31.060Z,100645.10
2022-08-29T13:01:59.741Z,100643.51
2022-08-29T13:04:36.556Z,100648.38
2022-08-29T13:07:07.996Z,100648.21
2022-08-29T13:09:41.844Z,100645.91
2022-08-29T13:12:18.148Z,100647.55
2022-08-29T13:14:52.552Z,100643.67
2022-08-29T13:17:30.745Z,100639.30
2022-08-29T13:20:49.151Z,100636.86
2022-08-29T13:23:28.019Z,100637.70
2022-08-29T13:25:59.288Z,100638.04
2022-08-29T13:28:45.575Z,100635.27
2022-08-29T13:31:19.731Z,100634.00
2022-08-29T13:33:50.940Z,100633.83
2022-08-29T13:36:31.061Z,100633.50
2022-08-29T13:39:18.322Z,100632.98
2022-08-29T13:42:10.404Z,100628.75
2022-08-29T13:44:59.130Z,100629.35
2022-08-29T13:47:33.229Z,100624.89
2022-08-29T13:50:06.110Z,100630.14
2022-08-29T13:52:34.569Z,100620.83
2022-08-29T13:55:03.459Z,100607.67
2022-08-29T13:57:31.781Z,100619.54
2022-08-29T14:00:01.234Z,100621.21
2022-08-29T14:02:34.664Z,100621.63
2022-08-29T14:05:03.004Z,100604.96
2022-08-29T14:07:31.824Z,100621.63
2022-08-29T14:10:01.350Z,100619.09
2022-08-29T14:12:33.836Z,100622.89
2022-08-29T14:15:08.994Z,100619.98
2022-08-29T14:17:41.964Z,100621.20
2022-08-29T14:20:10.738Z,100619.85
2022-08-29T14:22:38.999Z,100621.27
2022-08-29T14:25:08.364Z,100626.83
2022-08-29T14:27:37.252Z,100622.90
2022-08-29T14:30:07.159Z,100625.61
2022-08-29T14:32:35.933Z,100626.48
2022-08-29T14:35:05.382Z,100624.34
2022-08-29T14:37:34.866Z,100624.50
2022-08-29T14:40:05.416Z,100629.08
2022-08-29T14:42:33.401Z,100620.52
2022-08-29T14:45:01.713Z,100619.79
2022-08-29T14:47:30.188Z,100622.20
2022-08-29T14:49:58.165Z,100624.89
2022-08-29T14:52:26.583Z,100624.48
2022-08-29T14:54:57.375Z,100624.05
2022-08-29T14:57:27.497Z,100624.34
2022-08-29T14:59:55.471Z,100618.50
2022-08-29T15:02:23.658Z,100619.60
2022-08-29T15:04:51.562Z,100619.64
2022-08-29T15:07:19.680Z,100622.22
2022-08-29T15:09:48.024Z,100620.70
2022-08-29T15:12:18.061Z,100620.51
2022-08-29T15:14:46.407Z,100618.30
2022-08-29T15:17:15.485Z,100616.58
2022-08-29T15:22:32.636Z,100620.54
2022-08-29T15:25:01.138Z,100621.05
2022-08-29T15:27:30.082Z,100613.29
2022-08-29T15:29:59.752Z,100607.04
2022-08-29T15:32:27.792Z,100605.86
2022-08-29T15:34:55.570Z,100609.81
2022-08-29T15:37:23.692Z,100608.95
2022-08-29T15:39:54.552Z,100607.46
2022-08-29T15:42:29.899Z,100606.16
2022-08-29T15:45:07.987Z,100604.23
2022-08-29T15:47:36.605Z,100607.55
2022-08-29T15:50:08.410Z,100601.06
2022-08-29T15:52:37.583Z,100601.26
2022-08-29T15:55:07.366Z,100605.80
2022-08-29T15:57:39.577Z,100589.35
2022-08-29T16:00:30.610Z,100602.17
2022-08-29T16:03:02.828Z,100596.95
2022-08-29T16:05:32.678Z,100600.77
2022-08-29T16:08:02.380Z,100597.58
2022-08-29T16:10:31.739Z,100604.04
2022-08-29T16:13:20.489Z,100599.52
2022-08-29T16:15:50.308Z,100597.05
2022-08-29T16:18:18.689Z,100598.64
2022-08-29T16:20:46.675Z,100603.49
2022-08-29T16:23:15.527Z,100601.52
2022-08-29T16:25:44.322Z,100605.10
2022-08-29T16:28:13.528Z,100591.62
2022-08-29T16:30:46.078Z,100602.02
2022-08-29T16:33:14.758Z,100602.14
2022-08-29T16:35:43.283Z,100603.11
2022-08-29T16:38:11.936Z,100603.11
2022-08-29T16:40:40.403Z,100603.14
2022-08-29T16:43:08.598Z,100606.23
2022-08-29T16:45:36.877Z,100604.22
2022-08-29T16:48:15.726Z,100607.38
2022-08-29T16:50:45.209Z,100610.35
2022-08-29T16:53:13.421Z,100606.30
2022-08-29T16:55:41.202Z,100612.24
2022-08-29T16:58:27.996Z,100616.09
2022-08-29T17:00:55.995Z,100615.16
2022-08-29T17:03:24.133Z,100600.14
2022-08-29T17:05:52.212Z,100617.21
2022-08-29T17:08:20.193Z,100615.20
2022-08-29T17:10:48.058Z,100616.91
2022-08-29T17:13:15.846Z,100623.54
2022-08-29T17:15:43.894Z,100627.83
2022-08-29T17:18:12.002Z,100628.30
2022-08-29T17:20:41.573Z,100615.63
2022-08-29T17:23:15.960Z,100621.94
2022-08-29T17:25:43.992Z,100612.88
2022-08-29T17:28:18.071Z,100627.44
2022-08-29T17:30:49.127Z,100628.10
2022-08-29T17:33:18.873Z,100628.37
2022-08-29T17:35:47.400Z,100627.89
2022-08-29T17:38:16.237Z,100629.13
2022-08-29T17:40:44.650Z,100631.60
2022-08-29T17:43:13.259Z,100632.70
2022-08-29T17:45:42.007Z,100631.95
2022-08-29T17:48:10.178Z,100632.73
2022-08-29T17:50:39.260Z,100638.45
2022-08-29T17:53:07.530Z,100637.27
2022-08-29T17:55:35.421Z,100635.50
2022-08-29T17:58:03.589Z,100639.96
2022-08-29T18:00:32.320Z,100641.73
2022-08-29T18:03:00.311Z,100641.40
2022-08-29T18:05:29.176Z,100639.11
2022-08-29T18:07:57.725Z,100643.48
2022-08-29T18:10:25.762Z,100645.91
2022-08-29T18:12:53.793Z,100648.55
2022-08-29T18:15:22.247Z,100652.80
2022-08-29T18:17:51.577Z,100654.83
2022-08-29T18:20:22.079Z,100655.60
2022-08-29T18:22:50.402Z,100658.40
2022-08-29T18:25:22.702Z,100662.29
2022-08-29T18:27:51.093Z,100661.77
2022-08-29T18:30:20.529Z,100665.73
2022-08-29T18:32:48.986Z,100666.36
2022-08-29T18:35:17.299Z,100668.86
2022-08-29T18:37:45.225Z,100670.65
2022-08-29T18:40:13.700Z,100674.69
2022-08-29T18:42:41.839Z,100677.45
2022-08-29T18:45:11.418Z,100679.02
2022-08-29T18:47:40.704Z,100680.92
2022-08-29T18:50:28.642Z,100676.25
2022-08-29T18:52:57.361Z,100679.67
2022-08-29T18:55:27.936Z,100666.92
2022-08-29T18:57:56.398Z,100679.64
2022-08-29T19:00:25.246Z,100688.71
2022-08-29T19:02:55.232Z,100688.04
2022-08-29T19:05:25.059Z,100694.55
2022-08-29T19:07:53.484Z,100695.94
2022-08-29T19:10:22.784Z,100696.80
2022-08-29T19:12:50.723Z,100702.23
2022-08-29T19:15:21.484Z,100701.15
2022-08-29T19:17:49.919Z,100695.88
2022-08-29T19:20:39.670Z,100695.84
2022-08-29T19:23:09.205Z,100700.46
2022-08-29T19:25:38.507Z,100704.20
2022-08-29T19:28:08.554Z,100704.66
2022-08-29T19:30:38.322Z,100706.52
2022-08-29T19:33:08.338Z,100706.02
2022-08-29T19:35:39.085Z,100699.39
2022-08-29T19:38:08.265Z,100705.20
2022-08-29T19:40:39.238Z,100706.55
2022-08-29T19:43:13.667Z,100710.44
2022-08-29T19:48:33.558Z,100713.83
2022-08-29T19:51:02.199Z,100712.81
2022-08-29T19:53:30.279Z,100711.83
2022-08-29T19:55:58.597Z,100711.35
2022-08-29T19:58:31.599Z,100717.35
2022-08-29T20:01:02.119Z,100715.15
2022-08-29T20:03:31.220Z,100716.52
2022-08-29T20:06:00.322Z,100715.20
2022-08-29T20:08:31.429Z,100720.48
2022-08-29T20:10:59.893Z,100718.14
2022-08-29T20:13:31.575Z,100721.02
2022-08-29T20:16:09.233Z,100723.36
2022-08-29T20:18:38.368Z,100720.91
2022-08-29T20:21:06.535Z,100722.89
2022-08-29T20:23:34.686Z,100719.77
2022-08-29T20:26:03.157Z,100723.36
2022-08-29T20:28:31.759Z,100725.52
2022-08-29T20:31:01.180Z,100725.04
2022-08-29T20:33:29.249Z,100727.15
2022-08-29T20:36:16.084Z,100731.77
2022-08-29T20:38:44.715Z,100737.40
2022-08-29T20:41:13.492Z,100742.08
2022-08-29T20:43:44.132Z,100748.13
2022-08-29T20:46:12.859Z,100744.00
2022-08-29T20:48:41.110Z,100739.20
2022-08-29T20:51:10.405Z,100739.58
2022-08-29T20:53:40.555Z,100745.25
2022-08-29T20:56:09.418Z,100743.78
2022-08-29T20:58:37.621Z,100747.61
2022-08-29T21:01:05.926Z,100748.85
2022-08-29T21:03:53.089Z,100752.02
2022-08-29T21:06:22.158Z,100757.12
2022-08-29T21:08:50.788Z,100758.91
2022-08-29T21:11:19.242Z,100759.07
2022-08-29T21:13:49.060Z,100760.70
2022-08-29T21:16:21.067Z,100763.30
2022-08-29T21:18:53.538Z,100764.95
2022-08-29T21:21:24.826Z,100767.31
2022-08-29T21:23:53.647Z,100772.70
2022-08-29T21:26:21.647Z,100768.25
2022-08-29T21:28:49.871Z,100770.47
2022-08-29T21:31:19.605Z,100772.00
2022-08-29T21:33:48.254Z,100773.16
2022-08-29T21:36:24.615Z,100770.48
2022-08-29T21:38:55.252Z,100769.23
2022-08-29T21:41:24.684Z,100766.65
2022-08-29T21:43:52.757Z,100769.77
2022-08-29T21:46:27.416Z,100772.81
2022-08-29T21:48:57.499Z,100773.34
2022-08-29T21:51:27.111Z,100763.86
2022-08-29T21:53:57.266Z,100774.32
2022-08-29T21:56:28.247Z,100781.76
2022-08-29T21:58:57.277Z,100779.57
2022-08-29T22:01:30.150Z,100782.06
2022-08-29T22:04:01.178Z,100781.34
2022-08-29T22:06:29.997Z,100779.18
2022-08-29T22:08:59.578Z,100780.06
2022-08-29T22:11:37.681Z,100782.52
2022-08-29T22:14:08.073Z,100782.30
2022-08-29T22:16:37.160Z,100774.12
2022-08-29T22:19:10.055Z,100789.23
2022-08-29T22:21:41.721Z,100791.66
2022-08-29T22:24:10.973Z,100792.54
2022-08-29T22:26:40.941Z,100790.23
2022-08-29T22:29:12.029Z,100794.68
2022-08-29T22:31:42.677Z,100796.03
2022-08-29T22:34:11.896Z,100793.41
2022-08-29T22:36:39.815Z,100799.35
2022-08-29T22:39:08.259Z,100798.45
2022-08-29T22:41:36.538Z,100797.84
2022-08-29T22:46:54.695Z,100797.29
2022-08-29T22:49:22.719Z,100782.58
2022-08-29T22:51:53.195Z,100794.20
2022-08-29T22:54:36.773Z,100792.91
2022-08-29T22:57:09.079Z,100788.10
2022-08-29T22:59:38.107Z,100786.59
2022-08-29T23:02:06.600Z,100773.42
2022-08-29T23:04:35.978Z,100783.81
2022-08-29T23:07:06.141Z,100786.00
2022-08-29T23:09:35.164Z,100782.45
2022-08-29T23:12:10.983Z,100788.73
2022-08-29T23:14:42.411Z,100787.69
2022-08-29T23:17:10.732Z,100783.62
2022-08-29T23:19:41.222Z,100784.88
2022-08-29T23:22:11.269Z,100784.27
2022-08-29T23:24:41.605Z,100785.71
2022-08-29T23:27:30.064Z,100786.19
2022-08-29T23:29:58.990Z,100780.16
2022-08-29T23:32:34.253Z,100780.11
2022-08-29T23:35:03.863Z,100778.63
2022-08-29T23:37:31.939Z,100778.74
2022-08-29T23:40:01.483Z,100779.55
2022-08-29T23:42:30.559Z,100782.21
2022-08-29T23:44:58.656Z,100765.23
2022-08-29T23:47:26.557Z,100780.20
2022-08-29T23:49:54.739Z,100777.16
2022-08-29T23:52:23.145Z,100776.55
2022-08-29T23:54:51.098Z,100779.44
2022-08-29T23:57:19.156Z,100776.84
